Time;durP1;ratioP1;P1;durP2;ratioP2;P2;SDS_P1;SDS_P2;PMS_P1;PMS_P2;Temp;Humidity;BMP_temperature;BMP_pressure;BME280_temperature;BME280_humidity;BME280_pressure;Samples;Min_cycle;Max_cycle;Signal;HPM_P1;HPM_P2
2021/10/04 00:00:27;;;;;;;;;;;;;;;9.56;100.00;100627.22;6427390;27;19929;-76
2021/10/04 00:03:28;;;;;;;;;;;;;;;9.51;100.00;100631.78;6391610;27;20021;-76
2021/10/04 00:06:29;;;;;;;;;;;;;;;9.47;100.00;100633.72;6408747;27;19923;-75
2021/10/04 00:09:30;;;;;;;;;;;;;;;9.49;100.00;100636.22;6427245;27;19923;-76
2021/10/04 00:12:31;;;;;;;;;;;;;;;9.48;100.00;100632.78;6418110;27;20330;-75
2021/10/04 00:15:32;;;;;;;;;;;;;;;9.53;100.00;100626.50;6382810;27;19927;-76
2021/10/04 00:18:33;;;;;;;;;;;;;;;9.59;100.00;100627.06;6365564;27;19976;-76
2021/10/04 00:21:33;;;;;;;;;;;;;;;9.58;100.00;100627.16;6401062;27;19927;-76
2021/10/04 00:24:34;;;;;;;;;;;;;;;9.56;100.00;100631.59;6400993;27;19937;-76
2021/10/04 00:27:35;;;;;;;;;;;;;;;9.51;100.00;100621.38;6400974;27;19983;-76
2021/10/04 00:30:36;;;;;;;;;;;;;;;9.54;100.00;100625.59;6400958;27;19923;-76
2021/10/04 00:33:36;;;;;;;;;;;;;;;9.49;100.00;100610.19;6382264;27;19923;-76
2021/10/04 00:36:37;;;;;;;;;;;;;;;9.45;100.00;100617.31;6382114;27;19923;-76
2021/10/04 00:39:37;;;;;;;;;;;;;;;9.47;100.00;100614.63;6382392;27;19923;-73
2021/10/04 00:42:39;;;;;;;;;;;;;;;9.43;100.00;100611.34;6382185;27;20369;-73
2021/10/04 00:45:39;;;;;;;;;;;;;;;9.43;100.00;100610.47;6399504;27;19923;-73
2021/10/04 00:48:40;;;;;;;;;;;;;;;9.41;100.00;100602.75;6400369;27;19923;-73
2021/10/04 00:51:41;;;;;;;;;;;;;;;9.32;100.00;100604.94;6400256;27;20134;-76
2021/10/04 00:54:41;;;;;;;;;;;;;;;9.17;100.00;100609.94;6400290;27;20400;-76
2021/10/04 00:57:42;;;;;;;;;;;;;;;9.09;100.00;100606.84;6400157;27;19923;-76
2021/10/04 01:00:43;;;;;;;;;;;;;;;9.04;100.00;100603.63;6399927;27;19970;-73
2021/10/04 01:03:43;;;;;;;;;;;;;;;9.03;100.00;100600.16;6399903;27;19923;-73
2021/10/04 01:06:44;;;;;;;;;;;;;;;8.95;100.00;100604.88;6381507;27;19923;-76
2021/10/04 01:09:44;;;;;;;;;;;;;;;8.94;100.00;100611.00;6381678;27;19923;-76
2021/10/04 01:12:47;;;;;;;;;;;;;;;8.94;100.00;100608.41;6381423;27;19930;-73
2021/10/04 01:15:48;;;;;;;;;;;;;;;8.95;100.00;100611.84;6399756;27;19923;-73
2021/10/04 01:18:48;;;;;;;;;;;;;;;8.82;100.00;100619.34;6399554;27;19937;-73
2021/10/04 01:21:49;;;;;;;;;;;;;;;8.82;100.00;100619.34;6399600;27;19930;-73
2021/10/04 01:24:50;;;;;;;;;;;;;;;8.82;100.00;100604.59;6364167;27;19923;-73
2021/10/04 01:27:50;;;;;;;;;;;;;;;8.82;100.00;100612.38;6380927;27;19958;-73
2021/10/04 01:30:51;;;;;;;;;;;;;;;8.71;100.00;100612.03;6381003;27;19967;-73
2021/10/04 01:33:53;;;;;;;;;;;;;;;8.68;100.00;100614.75;6399326;27;19927;-73
2021/10/04 01:36:53;;;;;;;;;;;;;;;8.70;100.00;100615.53;6399272;27;19923;-73
2021/10/04 01:39:54;;;;;;;;;;;;;;;8.80;100.00;100624.63;6363549;27;19923;-75
2021/10/04 01:42:54;;;;;;;;;;;;;;;8.85;100.00;100611.41;6380554;27;20425;-76
2021/10/04 01:45:55;;;;;;;;;;;;;;;8.95;100.00;100611.84;6380565;27;19956;-76
2021/10/04 01:48:56;;;;;;;;;;;;;;;8.87;100.00;100606.97;6380531;27;19923;-76
2021/10/04 01:51:56;;;;;;;;;;;;;;;8.81;100.00;100612.44;6380337;27;20340;-76
2021/10/04 01:54:57;;;;;;;;;;;;;;;8.81;100.00;100609.84;6398801;27;20389;-76
2021/10/04 01:57:57;;;;;;;;;;;;;;;8.81;100.00;100612.44;6380184;27;19927;-73
2021/10/04 02:00:59;;;;;;;;;;;;;;;8.81;100.00;100615.91;6398499;27;19923;-72
2021/10/04 02:04:00;;;;;;;;;;;;;;;8.74;100.00;100619.69;6379887;27;20390;-73
2021/10/04 02:07:01;;;;;;;;;;;;;;;8.73;100.00;100619.75;6362933;27;19934;-72
2021/10/04 02:10:01;;;;;;;;;;;;;;;8.76;100.00;100610.06;6398413;27;19968;-73
2021/10/04 02:13:05;;;;;;;;;;;;;;;8.81;100.00;100621.13;6398310;27;19930;-73
2021/10/04 02:16:05;;;;;;;;;;;;;;;8.80;100.00;100627.22;6398196;27;19923;-73
2021/10/04 02:19:06;;;;;;;;;;;;;;;8.61;100.00;100622.00;6379722;27;19977;-73
2021/10/04 02:22:07;;;;;;;;;;;;;;;8.65;100.00;100610.53;6379612;27;19930;-73
2021/10/04 02:25:08;;;;;;;;;;;;;;;8.68;100.00;100618.19;6379563;27;19927;-72
2021/10/04 02:28:10;;;;;;;;;;;;;;;8.70;100.00;100615.53;6397972;27;20508;-73
2021/10/04 02:31:11;;;;;;;;;;;;;;;8.70;100.00;100615.53;6398043;27;19930;-73
2021/10/04 02:34:11;;;;;;;;;;;;;;;8.68;100.00;100614.75;6379385;27;19926;-73
2021/10/04 02:37:12;;;;;;;;;;;;;;;8.72;100.00;100613.72;6379497;27;20310;-73
2021/10/04 02:40:13;;;;;;;;;;;;;;;8.70;100.00;100614.69;6362227;27;19995;-73
2021/10/04 02:43:18;;;;;;;;;;;;;;;8.67;100.00;100611.31;6379190;27;19967;-72
2021/10/04 02:46:19;;;;;;;;;;;;;;;8.68;100.00;100619.97;6362670;27;19926;-73
2021/10/04 02:49:19;;;;;;;;;;;;;;;8.66;100.00;100619.19;6397582;27;20397;-73
2021/10/04 02:52:21;;;;;;;;;;;;;;;8.60;100.00;100619.44;6361802;27;19972;-73
2021/10/04 02:55:22;;;;;;;;;;;;;;;8.57;100.00;100625.63;6397747;27;20340;-72
2021/10/04 02:58:23;;;;;;;;;;;;;;;8.53;100.00;100621.47;6379078;27;19971;-75
2021/10/04 03:01:24;;;;;;;;;;;;;;;8.53;100.00;100610.25;6378988;27;19931;-76
2021/10/04 03:04:24;;;;;;;;;;;;;;;8.54;100.00;100617.13;6378943;27;19923;-76
2021/10/04 03:07:25;;;;;;;;;;;;;;;8.54;100.00;100617.94;6397228;27;19937;-76
2021/10/04 03:10:26;;;;;;;;;;;;;;;8.50;100.00;100618.16;6378687;27;19937;-76
2021/10/04 03:13:27;;;;;;;;;;;;;;;8.39;100.00;100619.44;6397412;27;19923;-76
2021/10/04 03:16:28;;;;;;;;;;;;;;;8.37;100.00;100615.22;6397257;27;20290;-76
2021/10/04 03:19:29;;;;;;;;;;;;;;;8.39;100.00;100618.59;6397286;27;19929;-76
2021/10/04 03:22:29;;;;;;;;;;;;;;;8.39;100.00;100619.44;6378731;27;20338;-75
2021/10/04 03:25:30;;;;;;;;;;;;;;;8.38;100.00;100619.50;6397170;27;19923;-76
2021/10/04 03:28:31;;;;;;;;;;;;;;;8.35;100.00;100617.03;6397250;27;19923;-76
2021/10/04 03:31:31;;;;;;;;;;;;;;;8.31;100.00;100616.31;6361665;27;19930;-76
2021/10/04 03:34:32;;;;;;;;;;;;;;;8.16;100.00;100617.81;6378697;27;19988;-72
2021/10/04 03:37:33;;;;;;;;;;;;;;;8.04;100.00;100621.78;6378564;27;19931;-76
2021/10/04 03:40:34;;;;;;;;;;;;;;;8.08;100.00;100623.31;6396865;27;20006;-76
2021/10/04 03:43:34;;;;;;;;;;;;;;;8.04;100.00;100628.72;6378694;27;19923;-72
2021/10/04 03:46:35;;;;;;;;;;;;;;;8.03;100.00;100627.88;6396775;27;19923;-72
2021/10/04 03:49:35;;;;;;;;;;;;;;;8.01;100.00;100631.44;6396868;27;19923;-72
2021/10/04 03:52:36;;;;;;;;;;;;;;;7.99;100.00;100628.06;6396840;27;20331;-72
2021/10/04 03:55:37;;;;;;;;;;;;;;;7.95;100.00;100635.16;6396625;27;19929;-72
2021/10/04 03:58:38;;;;;;;;;;;;;;;7.97;100.00;100635.06;6396634;27;19959;-72
2021/10/04 04:01:39;;;;;;;;;;;;;;;7.88;100.00;100636.28;6396333;27;19945;-72
2021/10/04 04:04:39;;;;;;;;;;;;;;;7.86;100.00;100636.38;6378289;27;20297;-72
2021/10/04 04:07:40;;;;;;;;;;;;;;;7.86;100.00;100633.78;6396485;27;19930;-72
2021/10/04 04:10:41;;;;;;;;;;;;;;;7.83;100.00;100633.88;6361085;27;20025;-72
2021/10/04 04:13:41;;;;;;;;;;;;;;;7.81;100.00;100640.06;6361024;27;19927;-72
2021/10/04 04:16:42;;;;;;;;;;;;;;;7.79;100.00;100644.47;6378076;27;19923;-72
2021/10/04 04:19:43;;;;;;;;;;;;;;;7.76;100.00;100644.59;6378196;27;19930;-72
2021/10/04 04:22:44;;;;;;;;;;;;;;;7.77;100.00;100647.13;6382694;27;20017;-72
2021/10/04 04:25:45;;;;;;;;;;;;;;;7.77;100.00;100646.28;6382800;27;20393;-76
2021/10/04 04:28:45;;;;;;;;;;;;;;;7.76;100.00;100644.59;6382604;27;19923;-76
2021/10/04 04:31:46;;;;;;;;;;;;;;;7.69;100.00;100650.94;6382505;27;20018;-75
2021/10/04 04:34:46;;;;;;;;;;;;;;;7.69;100.00;100651.78;6400973;27;20385;-75
2021/10/04 04:37:47;;;;;;;;;;;;;;;7.70;100.00;100658.69;6382238;27;19923;-76
2021/10/04 04:40:47;;;;;;;;;;;;;;;7.69;100.00;100654.38;6400588;27;20444;-76
2021/10/04 04:43:48;;;;;;;;;;;;;;;7.73;100.00;100655.94;6400778;27;19927;-76
2021/10/04 04:46:49;;;;;;;;;;;;;;;7.65;100.00;100651.03;6382176;27;19929;-76
2021/10/04 04:49:50;;;;;;;;;;;;;;;7.65;100.00;100660.59;6400489;27;20379;-76
2021/10/04 04:52:51;;;;;;;;;;;;;;;7.57;100.00;100670.44;6400448;27;19923;-76
2021/10/04 04:55:51;;;;;;;;;;;;;;;7.55;100.00;100675.69;6400278;27;19976;-76
2021/10/04 04:58:52;;;;;;;;;;;;;;;7.57;100.00;100660.06;6400256;27;19923;-76
2021/10/04 05:01:53;;;;;;;;;;;;;;;7.64;100.00;100661.53;6356050;27;19984;-76
2021/10/04 05:04:53;;;;;;;;;;;;;;;7.64;100.00;100658.91;6373951;27;19972;-77
2021/10/04 05:07:54;;;;;;;;;;;;;;;7.71;100.00;100657.75;6386701;27;20288;-76
2021/10/04 05:10:55;;;;;;;;;;;;;;;7.69;100.00;100658.72;6374257;27;19923;-76
2021/10/04 05:13:55;;;;;;;;;;;;;;;7.73;100.00;100660.31;6374124;27;19931;-76
2021/10/04 05:16:56;;;;;;;;;;;;;;;7.79;100.00;100660.91;6361235;27;19923;-73
2021/10/04 05:19:56;;;;;;;;;;;;;;;7.86;100.00;100670.16;6373946;27;19931;-73
2021/10/04 05:22:57;;;;;;;;;;;;;;;7.99;100.00;100660.09;6373758;27;20010;-73
2021/10/04 05:25:58;;;;;;;;;;;;;;;8.12;100.00;100657.84;6355834;27;19927;-73
2021/10/04 05:28:59;;;;;;;;;;;;;;;8.19;100.00;100661.88;6373683;27;19923;-73
2021/10/04 05:31:59;;;;;;;;;;;;;;;8.26;100.00;100667.69;6372155;27;20019;-73
2021/10/04 05:35:00;;;;;;;;;;;;;;;8.35;100.00;100661.25;6372313;27;19966;-73
2021/10/04 05:38:01;;;;;;;;;;;;;;;8.43;100.00;100670.44;6373793;27;19983;-73
2021/10/04 05:41:01;;;;;;;;;;;;;;;8.52;100.00;100669.19;6372210;27;20328;-73
2021/10/04 05:44:02;;;;;;;;;;;;;;;8.68;100.00;100672.00;6379532;27;19923;-73
2021/10/04 05:47:03;;;;;;;;;;;;;;;8.73;100.00;100667.44;6374413;27;20309;-73
2021/10/04 05:50:05;;;;;;;;;;;;;;;8.88;100.00;100668.53;6373848;27;20026;-73
2021/10/04 05:53:05;;;;;;;;;;;;;;;9.00;100.00;100673.19;6383195;27;19923;-74
2021/10/04 05:56:06;;;;;;;;;;;;;;;9.12;100.00;100676.16;6393548;27;19995;-73
2021/10/04 05:59:07;;;;;;;;;;;;;;;9.19;100.00;100669.75;6377646;27;19923;-73
2021/10/04 06:02:08;;;;;;;;;;;;;;;9.37;100.00;100678.47;6354273;27;20306;-73
2021/10/04 06:05:09;;;;;;;;;;;;;;;9.49;100.00;100677.91;6372912;27;19992;-76
2021/10/04 06:08:10;;;;;;;;;;;;;;;9.62;100.00;100679.03;6371401;27;19923;-77
2021/10/04 06:11:10;;;;;;;;;;;;;;;9.75;100.00;100681.06;6370512;27;19923;-76
2021/10/04 06:14:11;;;;;;;;;;;;;;;9.82;100.00;100678.09;6371282;27;19923;-76
2021/10/04 06:17:12;;;;;;;;;;;;;;;9.95;100.00;100685.31;6371071;27;20393;-76
2021/10/04 06:20:13;;;;;;;;;;;;;;;10.11;100.00;100694.09;6353801;27;20023;-76
2021/10/04 06:23:14;;;;;;;;;;;;;;;10.24;100.00;100683.91;6381570;27;19930;-77
2021/10/04 06:26:15;;;;;;;;;;;;;;;10.39;100.00;100690.97;6383070;27;19945;-73
2021/10/04 06:29:15;;;;;;;;;;;;;;;10.55;100.00;100692.84;6375967;27;19930;-76
2021/10/04 06:32:16;;;;;;;;;;;;;;;10.70;100.00;100694.66;6371141;27;19923;-76
2021/10/04 06:35:17;;;;;;;;;;;;;;;10.87;100.00;100689.41;6369570;27;19923;-76
2021/10/04 06:38:18;;;;;;;;;;;;;;;11.09;100.00;100694.31;6371868;27;20347;-73
2021/10/04 06:41:19;;;;;;;;;;;;;;;11.31;100.00;100694.97;6370477;27;19923;-74
2021/10/04 06:44:19;;;;;;;;;;;;;;;11.50;100.00;100700.88;6371100;27;19924;-73
2021/10/04 06:47:20;;;;;;;;;;;;;;;11.66;100.00;100699.13;6371610;27;19930;-73
2021/10/04 06:50:20;;;;;;;;;;;;;;;11.88;100.00;100701.41;6371578;27;20068;-73
2021/10/04 06:53:21;;;;;;;;;;;;;;;12.07;99.58;100698.59;6371641;27;19966;-72
2021/10/04 06:56:22;;;;;;;;;;;;;;;12.27;95.29;100694.84;6371531;27;20014;-73
2021/10/04 06:59:22;;;;;;;;;;;;;;;12.47;92.46;100698.91;6370679;27;19930;-73
2021/10/04 07:02:23;;;;;;;;;;;;;;;12.69;93.21;100697.63;6397084;27;19977;-73
2021/10/04 07:05:26;;;;;;;;;;;;;;;12.86;93.42;100700.06;6396306;27;20205;-73
2021/10/04 07:08:26;;;;;;;;;;;;;;;13.05;88.63;100693.72;6361613;27;20113;-72
2021/10/04 07:11:27;;;;;;;;;;;;;;;13.21;87.61;100706.72;6378884;27;19923;-73
2021/10/04 07:14:27;;;;;;;;;;;;;;;13.49;84.89;100701.50;6402601;27;20289;-73
2021/10/04 07:17:28;;;;;;;;;;;;;;;13.70;86.81;100695.81;6386101;27;19929;-73
2021/10/04 07:20:29;;;;;;;;;;;;;;;13.89;81.49;100695.47;6387452;27;19922;-73
2021/10/04 07:23:29;;;;;;;;;;;;;;;14.15;80.85;100695.59;6404254;27;19923;-73
2021/10/04 07:26:30;;;;;;;;;;;;;;;14.42;78.87;100698.16;6404553;27;19930;-73
2021/10/04 07:29:31;;;;;;;;;;;;;;;14.58;80.42;100695.34;6404129;27;19931;-73
2021/10/04 07:32:31;;;;;;;;;;;;;;;14.73;74.61;100699.56;6395567;27;19930;-73
2021/10/04 07:35:32;;;;;;;;;;;;;;;14.94;71.71;100696.44;6378801;27;19923;-73
2021/10/04 07:38:34;;;;;;;;;;;;;;;15.15;70.25;100694.91;6396766;27;19970;-73
2021/10/04 07:41:35;;;;;;;;;;;;;;;15.45;70.80;100697.19;6378166;27;19927;-73
2021/10/04 07:44:36;;;;;;;;;;;;;;;15.58;69.68;100694.50;6378375;27;19923;-73
2021/10/04 07:47:37;;;;;;;;;;;;;;;15.78;68.15;100692.28;6378290;27;19946;-73
2021/10/04 07:50:38;;;;;;;;;;;;;;;15.96;69.01;100690.06;6378125;27;20285;-73
2021/10/04 07:53:40;;;;;;;;;;;;;;;16.19;63.06;100688.38;6378176;27;19985;-73
2021/10/04 07:56:42;;;;;;;;;;;;;;;16.39;65.50;100692.16;6383454;27;19934;-73
2021/10/04 07:59:42;;;;;;;;;;;;;;;16.60;62.78;100684.44;6401653;27;19923;-73
2021/10/04 08:02:43;;;;;;;;;;;;;;;16.81;61.26;100692.50;6382954;27;20014;-73
2021/10/04 08:05:43;;;;;;;;;;;;;;;17.01;58.17;100686.53;6401496;27;19975;-73
2021/10/04 08:08:44;;;;;;;;;;;;;;;17.22;53.53;100691.91;6412402;27;19930;-73
2021/10/04 08:11:45;;;;;;;;;;;;;;;17.40;55.95;100692.28;6427202;27;19922;-73
2021/10/04 08:14:45;;;;;;;;;;;;;;;17.62;55.05;100682.63;6427176;27;19974;-73
2021/10/04 08:17:48;;;;;;;;;;;;;;;17.66;51.93;100684.88;6408423;27;19972;-73
2021/10/04 08:20:48;;;;;;;;;;;;;;;17.81;51.13;100684.59;6391184;27;20221;-74
2021/10/04 08:23:50;;;;;;;;;;;;;;;18.01;51.19;100675.91;6427008;27;19930;-73
2021/10/04 08:26:50;;;;;;;;;;;;;;;18.26;51.71;100674.75;6408320;27;20291;-73
2021/10/04 08:29:51;;;;;;;;;;;;;;;18.43;51.07;100673.31;6426688;27;19922;-74
2021/10/04 08:32:52;;;;;;;;;;;;;;;18.62;49.68;100679.69;6408150;27;19975;-74
2021/10/04 08:35:52;;;;;;;;;;;;;;;18.81;49.07;100682.44;6426785;27;19983;-74
2021/10/04 08:50:31;;;;;;;11.43;3.67;;;;;;;19.24;44.92;100675.25;6369242;27;20379;-76
2021/10/04 08:53:32;;;;;;;19.65;3.58;;;;;;;19.36;43.71;100671.53;6367994;28;20455;-72
2021/10/04 08:56:34;;;;;;;9.90;3.23;;;;;;;19.43;42.91;100677.13;6367945;28;20092;-72
2021/10/04 08:59:35;;;;;;;9.88;3.15;;;;;;;19.55;43.50;100688.44;6350832;28;20049;-72
2021/10/04 09:02:37;;;;;;;15.90;4.53;;;;;;;19.61;41.34;100679.94;6369033;27;20043;-72
2021/10/04 09:05:43;;;;;;;;;;;;;;;19.80;41.79;100672.03;6368171;28;20039;-73
2021/10/04 09:08:54;;;;;;;12.85;3.83;;;;;;;20.03;41.52;100667.31;6351544;28;19924;-73
2021/10/04 09:11:55;;;;;;;6.05;3.42;;;;;;;20.08;40.05;100666.91;6368939;27;20032;-72
2021/10/04 09:14:56;;;;;;;5.73;3.23;;;;;;;20.22;40.36;100666.47;6350509;28;20035;-72
2021/10/04 09:18:21;;;;;;;5.43;3.27;;;;;;;20.47;41.40;100662.38;6350426;27;20088;-73
2021/10/04 09:21:24;;;;;;;5.20;3.10;;;;;;;20.71;43.03;100659.28;6368555;27;20046;-73
2021/10/04 09:24:24;;;;;;;8.63;3.00;;;;;;;20.93;40.35;100662.53;6333715;28;20448;-72
2021/10/04 09:27:56;;;;;;;4.50;3.50;;;;;;;20.80;38.81;100660.22;6367249;27;20043;-76
2021/10/04 09:31:17;;;;;;;13.07;3.50;;;;;;;20.86;40.03;100667.59;6363844;28;20055;-76
2021/10/04 09:34:21;;;;;;;4.93;3.22;;;;;;;20.98;39.46;100660.31;6367003;28;20044;-76
2021/10/04 09:37:26;;;;;;;6.78;3.58;;;;;;;21.16;40.30;100659.50;6368143;27;20402;-77
2021/10/04 09:40:39;;;;;;;8.05;3.70;;;;;;;21.03;39.22;100654.56;6366794;27;20092;-74
2021/10/04 09:43:39;;;;;;;5.65;3.30;;;;;;;21.14;41.19;100647.22;6367978;27;20167;-72
2021/10/04 09:46:40;;;;;;;4.97;3.03;;;;;;;21.45;39.34;100640.78;6367936;27;20498;-72
2021/10/04 09:49:56;;;;;;;6.27;3.40;;;;;;;21.33;38.00;100640.97;6359527;28;20130;-73
2021/10/04 09:53:02;;;;;;;10.02;3.50;;;;;;;21.44;38.19;100647.91;6349629;28;20036;-73
2021/10/04 09:56:03;;;;;;;7.15;3.45;;;;;;;21.71;37.92;100636.41;6350743;28;20483;-74
2021/10/04 09:59:06;;;;;;;15.63;4.05;;;;;;;22.04;38.40;100630.53;6332526;28;20046;-77
2021/10/04 10:02:08;;;;;;;5.88;3.47;;;;;;;21.97;35.99;100633.00;6349511;28;20036;-73
2021/10/04 10:05:08;;;;;;;;;;;;;;;22.14;38.25;100628.63;6349703;28;20040;-73
2021/10/04 10:08:10;;;;;;;4.93;3.20;;;;;;;22.37;37.18;100628.16;6349584;28;19919;-73
2021/10/04 10:11:17;;;;;;;6.90;3.35;;;;;;;22.39;36.28;100616.38;6349586;28;20047;-73
2021/10/04 10:14:19;;;;;;;13.23;3.58;;;;;;;22.56;37.13;100617.28;6332957;28;20471;-74
2021/10/04 10:17:25;;;;;;;;;;;;;;;22.66;35.95;100619.84;6332205;28;20058;-73
2021/10/04 10:20:27;;;;;;;7.20;2.90;;;;;;;22.78;35.03;100612.41;6348863;28;20022;-72
2021/10/04 10:23:59;;;;;;;10.43;3.53;;;;;;;22.66;34.76;100615.34;6350072;28;20460;-72
2021/10/04 10:27:03;;;;;;;6.90;3.45;;;;;;;22.60;34.53;100615.97;6348839;28;20458;-76
2021/10/04 10:30:25;;;;;;;6.18;3.17;;;;;;;22.68;34.90;100599.25;6348699;28;20410;-76
2021/10/04 10:33:47;;;;;;;;;;;;;;;22.78;35.13;100601.78;6350406;28;20071;-75
2021/10/04 10:37:01;;;;;;;;;;;;;;;22.94;34.08;100601.84;6348856;28;20026;-76
2021/10/04 10:40:10;;;;;;;5.65;3.10;;;;;;;23.05;34.82;100595.44;6348521;28;20340;-76
2021/10/04 10:43:13;;;;;;;8.98;3.20;;;;;;;22.97;33.63;100590.03;6348425;28;20046;-75
2021/10/04 10:46:33;;;;;;;;;;;;;;;23.23;35.22;100598.81;6349970;28;20046;-76
2021/10/04 10:50:12;;;;;;;10.88;3.15;;;;;;;23.30;35.49;100601.63;6349153;28;19934;-76
2021/10/04 10:53:16;;;;;;;9.77;3.35;;;;;;;23.31;33.07;100580.19;6348139;28;20475;-76
2021/10/04 10:56:17;;;;;;;10.65;3.42;;;;;;;23.49;34.33;100589.84;6349214;28;20123;-76
2021/10/04 10:59:25;;;;;;;8.43;3.13;;;;;;;23.60;34.18;100581.56;6330939;28;20046;-76
2021/10/04 11:02:55;;;;;;;11.38;3.15;;;;;;;23.66;32.46;100577.38;6346836;28;20039;-76
2021/10/04 11:06:02;;;;;;;4.65;2.70;;;;;;;23.25;31.73;100575.50;6347828;28;20054;-76
2021/10/04 11:09:03;;;;;;;7.95;3.58;;;;;;;23.74;33.28;100566.72;6347942;28;20054;-76
2021/10/04 11:12:04;;;;;;;15.43;3.00;;;;;;;23.85;33.18;100566.41;6348023;28;20055;-76
2021/10/04 11:15:05;;;;;;;9.77;3.33;;;;;;;23.78;31.44;100552.09;6330831;28;20035;-76
2021/10/04 11:18:08;;;;;;;10.93;3.10;;;;;;;23.87;31.42;100556.44;6347589;28;20411;-76
2021/10/04 11:21:12;;;;;;;5.68;3.00;;;;;;;23.72;31.75;100561.56;6347572;28;20407;-72
2021/10/04 11:24:12;;;;;;;10.80;2.88;;;;;;;23.85;34.24;100558.44;6347530;28;20035;-72
2021/10/04 11:27:14;;;;;;;4.63;2.90;;;;;;;23.94;32.26;100569.91;6347288;28;20044;-73
2021/10/04 11:30:15;;;;;;;9.45;2.80;;;;;;;23.99;31.23;100562.25;6348518;28;20536;-72
2021/10/04 11:33:16;;;;;;;8.15;3.20;;;;;;;23.88;30.62;100552.75;6330300;28;20043;-72
2021/10/04 11:36:19;;;;;;;7.87;2.67;;;;;;;23.82;32.24;100553.41;6330214;28;20067;-72
2021/10/04 11:39:26;;;;;;;6.55;3.00;;;;;;;23.82;32.38;100541.94;6346939;28;20291;-72
2021/10/04 11:42:27;;;;;;;6.32;2.70;;;;;;;23.76;30.98;100550.56;6347124;28;20505;-72
2021/10/04 11:45:28;;;;;;;7.77;2.90;;;;;;;23.82;30.87;100549.94;6329866;28;20036;-72
2021/10/04 11:48:32;;;;;;;8.80;3.00;;;;;;;23.91;30.92;100541.75;6347865;28;20098;-72
2021/10/04 11:51:34;;;;;;;12.02;3.33;;;;;;;23.97;32.04;100547.41;6347900;28;20046;-73
2021/10/04 11:54:43;;;;;;;3.78;2.95;;;;;;;23.87;30.42;100537.78;6330002;28;20138;-73
2021/10/04 11:57:44;;;;;;;5.57;2.80;;;;;;;23.98;32.10;100528.59;6346573;28;20415;-72
2021/10/04 12:00:45;;;;;;;4.47;2.87;;;;;;;23.96;31.02;100529.78;6347915;28;20043;-73
2021/10/04 12:03:46;;;;;;;;;;;;;;;24.13;32.19;100531.38;6347047;28;20384;-72
2021/10/04 12:06:47;;;;;;;5.20;2.63;;;;;;;24.08;29.43;100526.56;6347589;28;19973;-72
2021/10/04 12:09:56;;;;;;;11.23;2.95;;;;;;;24.07;30.94;100521.41;6329831;28;20407;-72
2021/10/04 12:12:56;;;;;;;9.52;2.80;;;;;;;24.22;31.45;100521.56;6347344;28;20118;-72
2021/10/04 12:16:04;;;;;;;10.77;3.40;;;;;;;24.26;31.25;100515.69;6346343;28;20089;-72
2021/10/04 12:19:05;;;;;;;11.63;3.33;;;;;;;24.08;30.49;100515.09;6347415;28;20044;-73
2021/10/04 12:22:06;;;;;;;7.85;3.15;;;;;;;24.14;31.86;100515.22;6347458;28;20044;-72
2021/10/04 12:25:24;;;;;;;7.00;3.13;;;;;;;24.16;31.00;100511.56;6329276;28;20089;-72
2021/10/04 12:28:25;;;;;;;7.43;2.85;;;;;;;24.08;30.16;100499.91;6347385;28;20043;-72
2021/10/04 12:31:37;;;;;;;11.85;3.08;;;;;;;24.14;32.40;100499.22;6329365;28;20047;-72
2021/10/04 12:34:38;;;;;;;;;;;;;;;24.20;32.77;100508.38;6346526;28;20402;-72
2021/10/04 12:37:44;;;;;;;7.05;3.13;;;;;;;24.22;30.81;100508.22;6345870;28;19920;-72
2021/10/04 12:40:59;;;;;;;6.63;2.67;;;;;;;24.08;32.05;100507.91;6347269;28;20040;-72
2021/10/04 12:44:17;;;;;;;10.77;2.95;;;;;;;24.16;31.79;100507.06;6329154;28;20047;-73
2021/10/04 12:47:18;;;;;;;14.32;3.20;;;;;;;24.06;31.46;100504.59;6347101;28;20036;-72
2021/10/04 12:50:38;;;;;;;9.40;3.37;;;;;;;24.00;32.76;100497.28;6345666;28;20078;-72
2021/10/04 12:53:52;;;;;;;10.65;3.22;;;;;;;23.95;30.90;100496.97;6347102;28;20479;-73
2021/10/04 12:56:53;;;;;;;7.47;3.25;;;;;;;23.85;31.55;100491.00;6346981;28;20100;-72
2021/10/04 12:59:59;;;;;;;8.53;3.43;;;;;;;23.83;30.98;100495.66;6347021;28;20372;-73
2021/10/04 13:03:00;;;;;;;5.18;2.70;;;;;;;23.82;31.14;100492.13;6345705;28;20057;-72
2021/10/04 13:06:01;;;;;;;5.43;2.93;;;;;;;23.76;33.13;100490.13;6346839;28;20406;-72
2021/10/04 13:09:04;;;;;;;10.20;3.17;;;;;;;23.87;31.45;100486.31;6346856;28;20044;-74
2021/10/04 13:12:06;;;;;;;6.65;3.28;;;;;;;23.86;33.57;100485.47;6346854;28;20407;-72
2021/10/04 13:15:06;;;;;;;;;;;;;;;23.81;31.50;100479.00;6339054;28;20096;-74
2021/10/04 13:18:08;;;;;;;5.20;3.20;;;;;;;23.65;32.64;100479.81;6334529;28;19920;-72
2021/10/04 13:21:10;;;;;;;5.70;3.28;;;;;;;23.53;31.90;100466.88;6320194;28;20119;-73
2021/10/04 13:24:14;;;;;;;5.75;3.50;;;;;;;23.56;31.86;100470.19;6344460;28;20513;-74
2021/10/04 13:27:15;;;;;;;8.50;3.80;;;;;;;23.58;31.74;100477.00;6351352;28;20054;-73
2021/10/04 13:30:17;;;;;;;7.82;2.78;;;;;;;23.45;31.50;100461.56;6351462;28;20043;-74
2021/10/04 13:33:18;;;;;;;7.97;3.13;;;;;;;23.52;32.58;100461.69;6350286;28;20043;-74
2021/10/04 13:36:20;;;;;;;15.60;3.38;;;;;;;23.48;32.69;100458.53;6326437;28;20035;-72
2021/10/04 13:39:21;;;;;;;8.55;2.95;;;;;;;23.53;32.63;100468.69;6340279;28;20040;-72
2021/10/04 13:42:22;;;;;;;11.40;3.10;;;;;;;23.39;32.43;100472.88;6328359;28;20449;-72
2021/10/04 13:45:23;;;;;;;7.17;3.10;;;;;;;23.29;34.35;100465.03;6332989;28;20340;-72
2021/10/04 13:48:25;;;;;;;11.03;3.00;;;;;;;23.36;32.03;100459.06;6332616;28;20067;-72
2021/10/04 13:51:25;;;;;;;6.65;3.30;;;;;;;23.38;32.50;100462.38;6332868;28;20319;-72
2021/10/04 13:54:26;;;;;;;5.67;3.40;;;;;;;23.27;32.17;100459.06;6304032;28;20041;-72
2021/10/04 13:57:27;;;;;;;7.93;3.03;;;;;;;23.27;32.78;100461.72;6282401;28;20036;-72
2021/10/04 14:00:31;;;;;;;6.47;3.17;;;;;;;23.20;33.55;100457.22;6300222;28;20120;-72
2021/10/04 14:03:36;;;;;;;5.85;3.25;;;;;;;23.17;34.00;100462.88;6299114;28;20048;-72
2021/10/04 14:06:37;;;;;;;8.38;2.83;;;;;;;23.08;32.93;100454.88;6316328;28;20044;-72
2021/10/04 14:09:37;;;;;;;9.50;3.17;;;;;;;22.98;33.82;100454.19;6349221;28;20044;-72
2021/10/04 14:12:38;;;;;;;13.97;3.40;;;;;;;22.92;34.39;100455.66;6332287;28;20433;-72
2021/10/04 14:15:39;;;;;;;9.30;3.00;;;;;;;22.82;35.67;100451.50;6331706;28;20131;-72
2021/10/04 14:18:40;;;;;;;6.83;3.00;;;;;;;22.78;35.65;100450.97;6323637;28;20044;-72
2021/10/04 14:21:40;;;;;;;6.13;3.03;;;;;;;22.80;34.75;100446.34;6324418;28;20051;-72
2021/10/04 14:24:42;;;;;;;25.33;5.53;;;;;;;22.80;33.83;100448.16;6349078;28;20039;-72
2021/10/04 14:27:43;;;;;;;4.72;2.85;;;;;;;22.79;34.33;100446.50;6349977;28;20040;-72
2021/10/04 14:30:44;;;;;;;9.10;3.00;;;;;;;22.65;34.56;100437.31;6350230;27;20046;-72
2021/10/04 14:33:45;;;;;;;5.63;2.90;;;;;;;22.70;34.38;100443.00;6350009;28;20035;-72
2021/10/04 14:36:46;;;;;;;7.00;3.00;;;;;;;22.64;34.88;100444.47;6331758;28;20223;-73
2021/10/04 14:39:47;;;;;;;9.80;5.90;;;;;;;22.50;35.17;100437.94;6349719;27;20467;-76
2021/10/04 14:42:49;;;;;;;13.93;4.53;;;;;;;22.42;35.75;100437.91;6326217;28;20066;-76
2021/10/04 14:45:50;;;;;;;4.78;3.05;;;;;;;22.39;34.22;100450.72;6323202;28;20040;-76
2021/10/04 14:48:51;;;;;;;14.97;3.33;;;;;;;22.38;34.20;100446.38;6323931;28;20062;-75
2021/10/04 14:51:52;;;;;;;7.40;3.25;;;;;;;22.33;34.96;100446.88;6323255;28;20047;-76
2021/10/04 14:54:53;;;;;;;5.40;3.40;;;;;;;22.25;35.39;100447.66;6348226;28;20047;-76
2021/10/04 14:57:54;;;;;;;5.35;3.30;;;;;;;22.17;36.30;100438.78;6333470;28;20047;-76
2021/10/04 15:00:59;;;;;;;9.13;3.70;;;;;;;22.05;36.46;100436.44;6338928;28;20035;-72
2021/10/04 15:04:00;;;;;;;11.38;3.08;;;;;;;22.05;36.52;100443.56;6281587;28;20075;-72
2021/10/04 15:07:01;;;;;;;10.33;3.53;;;;;;;22.04;37.46;100436.59;6298581;28;20047;-72
2021/10/04 15:10:04;;;;;;;8.63;3.33;;;;;;;21.92;37.16;100439.50;6319530;28;20032;-72